sensor_id;sensor_type;location;lat;lon;timestamp;P1;durP1;ratioP1;P2;durP2;ratioP2
2486;SDS011;1254;49.144;8.212;2024-02-16T00:01:17;8.95;;;6.13;;
2486;SDS011;1254;49.144;8.212;2024-02-16T00:03:45;9.43;;;6.72;;
2486;SDS011;1254;49.144;8.212;2024-02-16T00:06:15;8.53;;;6.17;;
2486;SDS011;1254;49.144;8.212;2024-02-16T00:08:43;7.90;;;7.10;;
2486;SDS011;1254;49.144;8.212;2024-02-16T00:11:11;8.07;;;6.80;;
2486;SDS011;1254;49.144;8.212;2024-02-16T00:13:39;10.00;;;7.55;;
2486;SDS011;1254;49.144;8.212;2024-02-16T00:16:07;7.53;;;6.00;;
2486;SDS011;1254;49.144;8.212;2024-02-16T00:18:36;9.70;;;7.10;;
2486;SDS011;1254;49.144;8.212;2024-02-16T00:21:04;7.80;;;6.67;;
2486;SDS011;1254;49.144;8.212;2024-02-16T00:23:34;7.83;;;6.97;;
2486;SDS011;1254;49.144;8.212;2024-02-16T00:26:02;7.93;;;7.10;;
2486;SDS011;1254;49.144;8.212;2024-02-16T00:28:33;8.75;;;7.35;;
2486;SDS011;1254;49.144;8.212;2024-02-16T00:31:01;12.33;;;6.97;;
2486;SDS011;1254;49.144;8.212;2024-02-16T00:33:31;7.70;;;6.70;;
2486;SDS011;1254;49.144;8.212;2024-02-16T00:35:59;15.43;;;7.17;;
2486;SDS011;1254;49.144;8.212;2024-02-16T00:38:28;13.63;;;7.87;;
2486;SDS011;1254;49.144;8.212;2024-02-16T00:40:57;9.95;;;6.82;;
2486;SDS011;1254;49.144;8.212;2024-02-16T00:43:26;10.98;;;7.53;;
2486;SDS011;1254;49.144;8.212;2024-02-16T00:45:54;6.80;;;6.20;;
2486;SDS011;1254;49.144;8.212;2024-02-16T00:48:23;10.07;;;7.38;;
2486;SDS011;1254;49.144;8.212;2024-02-16T00:50:51;10.23;;;6.65;;
2486;SDS011;1254;49.144;8.212;2024-02-16T00:53:19;8.70;;;6.32;;
2486;SDS011;1254;49.144;8.212;2024-02-16T00:55:47;12.57;;;6.60;;
2486;SDS011;1254;49.144;8.212;2024-02-16T00:58:17;8.13;;;6.70;;
2486;SDS011;1254;49.144;8.212;2024-02-16T01:00:46;8.93;;;6.10;;
2486;SDS011;1254;49.144;8.212;2024-02-16T01:03:15;7.43;;;6.50;;
2486;SDS011;1254;49.144;8.212;2024-02-16T01:05:43;9.70;;;6.43;;
2486;SDS011;1254;49.144;8.212;2024-02-16T01:08:11;6.13;;;5.63;;
2486;SDS011;1254;49.144;8.212;2024-02-16T01:10:39;9.60;;;6.50;;
2486;SDS011;1254;49.144;8.212;2024-02-16T01:13:07;7.85;;;6.35;;
2486;SDS011;1254;49.144;8.212;2024-02-16T01:15:37;9.17;;;7.37;;
2486;SDS011;1254;49.144;8.212;2024-02-16T01:18:07;7.93;;;5.90;;
2486;SDS011;1254;49.144;8.212;2024-02-16T01:20:35;13.07;;;6.70;;
2486;SDS011;1254;49.144;8.212;2024-02-16T01:23:03;9.60;;;6.20;;
2486;SDS011;1254;49.144;8.212;2024-02-16T01:25:32;8.45;;;6.35;;
2486;SDS011;1254;49.144;8.212;2024-02-16T01:28:00;10.00;;;6.22;;
2486;SDS011;1254;49.144;8.212;2024-02-16T01:30:28;6.75;;;5.75;;
2486;SDS011;1254;49.144;8.212;2024-02-16T01:32:58;9.80;;;6.40;;
2486;SDS011;1254;49.144;8.212;2024-02-16T01:35:26;7.03;;;6.32;;
2486;SDS011;1254;49.144;8.212;2024-02-16T01:37:54;6.88;;;6.18;;
2486;SDS011;1254;49.144;8.212;2024-02-16T01:40:22;8.45;;;6.60;;
2486;SDS011;1254;49.144;8.212;2024-02-16T01:42:52;33.00;;;8.20;;
2486;SDS011;1254;49.144;8.212;2024-02-16T01:45:20;7.38;;;6.30;;
2486;SDS011;1254;49.144;8.212;2024-02-16T01:47:50;9.40;;;6.23;;
2486;SDS011;1254;49.144;8.212;2024-02-16T01:50:20;11.63;;;6.28;;
2486;SDS011;1254;49.144;8.212;2024-02-16T01:52:49;10.20;;;6.05;;
2486;SDS011;1254;49.144;8.212;2024-02-16T01:55:18;8.63;;;5.70;;
2486;SDS011;1254;49.144;8.212;2024-02-16T01:57:47;7.60;;;6.10;;
2486;SDS011;1254;49.144;8.212;2024-02-16T02:00:16;7.05;;;6.22;;
2486;SDS011;1254;49.144;8.212;2024-02-16T02:02:45;7.68;;;6.07;;
2486;SDS011;1254;49.144;8.212;2024-02-16T02:05:13;6.03;;;5.43;;
2486;SDS011;1254;49.144;8.212;2024-02-16T02:07:43;6.30;;;5.70;;
2486;SDS011;1254;49.144;8.212;2024-02-16T02:10:11;9.37;;;6.10;;
2486;SDS011;1254;49.144;8.212;2024-02-16T02:12:40;12.43;;;6.13;;
2486;SDS011;1254;49.144;8.212;2024-02-16T02:15:09;7.20;;;6.20;;
2486;SDS011;1254;49.144;8.212;2024-02-16T02:17:37;6.25;;;5.65;;
2486;SDS011;1254;49.144;8.212;2024-02-16T02:20:06;8.98;;;6.03;;
2486;SDS011;1254;49.144;8.212;2024-02-16T02:22:38;7.88;;;6.03;;
2486;SDS011;1254;49.144;8.212;2024-02-16T02:25:06;10.70;;;6.40;;
2486;SDS011;1254;49.144;8.212;2024-02-16T02:27:36;9.57;;;6.50;;
2486;SDS011;1254;49.144;8.212;2024-02-16T02:30:05;12.65;;;9.60;;
2486;SDS011;1254;49.144;8.212;2024-02-16T02:32:33;10.20;;;8.80;;
2486;SDS011;1254;49.144;8.212;2024-02-16T02:35:01;15.52;;;10.15;;
2486;SDS011;1254;49.144;8.212;2024-02-16T02:37:30;13.75;;;9.70;;
2486;SDS011;1254;49.144;8.212;2024-02-16T02:40:00;13.63;;;8.55;;
2486;SDS011;1254;49.144;8.212;2024-02-16T02:42:32;15.18;;;10.00;;
2486;SDS011;1254;49.144;8.212;2024-02-16T02:45:00;18.27;;;9.10;;
2486;SDS011;1254;49.144;8.212;2024-02-16T02:47:28;18.00;;;8.50;;
2486;SDS011;1254;49.144;8.212;2024-02-16T02:49:56;12.05;;;7.32;;
2486;SDS011;1254;49.144;8.212;2024-02-16T02:52:25;11.98;;;6.75;;
2486;SDS011;1254;49.144;8.212;2024-02-16T02:54:53;12.57;;;6.60;;
2486;SDS011;1254;49.144;8.212;2024-02-16T02:57:23;11.00;;;6.45;;
2486;SDS011;1254;49.144;8.212;2024-02-16T02:59:51;10.23;;;6.45;;
2486;SDS011;1254;49.144;8.212;2024-02-16T03:02:19;10.18;;;7.53;;
2486;SDS011;1254;49.144;8.212;2024-02-16T03:04:47;13.52;;;8.32;;
2486;SDS011;1254;49.144;8.212;2024-02-16T03:07:16;8.83;;;7.60;;
2486;SDS011;1254;49.144;8.212;2024-02-16T03:09:44;7.80;;;6.93;;
2486;SDS011;1254;49.144;8.212;2024-02-16T03:12:12;11.75;;;7.32;;
2486;SDS011;1254;49.144;8.212;2024-02-16T03:14:42;14.02;;;8.13;;
2486;SDS011;1254;49.144;8.212;2024-02-16T03:17:10;8.73;;;7.53;;
2486;SDS011;1254;49.144;8.212;2024-02-16T03:19:38;9.50;;;8.30;;
2486;SDS011;1254;49.144;8.212;2024-02-16T03:22:06;15.60;;;8.90;;
2486;SDS011;1254;49.144;8.212;2024-02-16T03:24:34;11.05;;;8.40;;
2486;SDS011;1254;49.144;8.212;2024-02-16T03:27:03;8.80;;;7.95;;
2486;SDS011;1254;49.144;8.212;2024-02-16T03:29:31;14.45;;;9.32;;
2486;SDS011;1254;49.144;8.212;2024-02-16T03:32:01;12.50;;;8.63;;
2486;SDS011;1254;49.144;8.212;2024-02-16T03:34:29;12.25;;;8.93;;
2486;SDS011;1254;49.144;8.212;2024-02-16T03:36:57;18.63;;;9.83;;
2486;SDS011;1254;49.144;8.212;2024-02-16T03:39:26;11.70;;;9.20;;
2486;SDS011;1254;49.144;8.212;2024-02-16T03:41:54;15.48;;;10.57;;
2486;SDS011;1254;49.144;8.212;2024-02-16T03:44:22;15.80;;;10.30;;
2486;SDS011;1254;49.144;8.212;2024-02-16T03:46:51;14.75;;;9.90;;
2486;SDS011;1254;49.144;8.212;2024-02-16T03:49:20;11.90;;;9.55;;
2486;SDS011;1254;49.144;8.212;2024-02-16T03:51:48;13.13;;;9.80;;
2486;SDS011;1254;49.144;8.212;2024-02-16T03:54:16;10.85;;;9.13;;
2486;SDS011;1254;49.144;8.212;2024-02-16T03:56:44;14.13;;;9.48;;
2486;SDS011;1254;49.144;8.212;2024-02-16T03:59:14;41.50;;;30.23;;
2486;SDS011;1254;49.144;8.212;2024-02-16T04:01:42;16.33;;;14.60;;
2486;SDS011;1254;49.144;8.212;2024-02-16T04:04:11;14.55;;;12.25;;
2486;SDS011;1254;49.144;8.212;2024-02-16T04:06:41;13.70;;;10.95;;
2486;SDS011;1254;49.144;8.212;2024-02-16T04:09:09;12.57;;;10.43;;
2486;SDS011;1254;49.144;8.212;2024-02-16T04:11:38;13.80;;;10.48;;
2486;SDS011;1254;49.144;8.212;2024-02-16T04:14:06;16.08;;;10.70;;
2486;SDS011;1254;49.144;8.212;2024-02-16T04:16:34;18.20;;;12.45;;
2486;SDS011;1254;49.144;8.212;2024-02-16T04:19:03;14.02;;;11.10;;
2486;SDS011;1254;49.144;8.212;2024-02-16T04:21:31;11.05;;;9.95;;
2486;SDS011;1254;49.144;8.212;2024-02-16T04:24:00;14.40;;;12.27;;
2486;SDS011;1254;49.144;8.212;2024-02-16T04:26:29;14.23;;;10.73;;
2486;SDS011;1254;49.144;8.212;2024-02-16T04:28:57;14.05;;;9.75;;
2486;SDS011;1254;49.144;8.212;2024-02-16T04:31:25;11.85;;;10.55;;
2486;SDS011;1254;49.144;8.212;2024-02-16T04:33:54;19.65;;;10.75;;
2486;SDS011;1254;49.144;8.212;2024-02-16T04:36:22;16.30;;;10.60;;
2486;SDS011;1254;49.144;8.212;2024-02-16T04:38:50;17.53;;;10.20;;
2486;SDS011;1254;49.144;8.212;2024-02-16T04:41:20;16.73;;;11.60;;
2486;SDS011;1254;49.144;8.212;2024-02-16T04:43:49;15.77;;;11.90;;
2486;SDS011;1254;49.144;8.212;2024-02-16T04:46:17;13.80;;;10.88;;
2486;SDS011;1254;49.144;8.212;2024-02-16T04:48:45;12.60;;;10.63;;
2486;SDS011;1254;49.144;8.212;2024-02-16T04:51:13;15.27;;;9.57;;
2486;SDS011;1254;49.144;8.212;2024-02-16T04:53:42;13.07;;;9.40;;
2486;SDS011;1254;49.144;8.212;2024-02-16T04:56:10;10.65;;;9.55;;
2486;SDS011;1254;49.144;8.212;2024-02-16T04:58:41;14.07;;;9.83;;
2486;SDS011;1254;49.144;8.212;2024-02-16T05:01:09;10.83;;;8.90;;
2486;SDS011;1254;49.144;8.212;2024-02-16T05:03:37;11.68;;;10.48;;
2486;SDS011;1254;49.144;8.212;2024-02-16T05:06:07;10.02;;;9.02;;
2486;SDS011;1254;49.144;8.212;2024-02-16T05:08:35;12.37;;;9.23;;
2486;SDS011;1254;49.144;8.212;2024-02-16T05:11:03;13.55;;;9.88;;
2486;SDS011;1254;49.144;8.212;2024-02-16T05:13:35;10.87;;;9.77;;
2486;SDS011;1254;49.144;8.212;2024-02-16T05:16:08;13.63;;;10.57;;
2486;SDS011;1254;49.144;8.212;2024-02-16T05:18:37;15.98;;;11.15;;
2486;SDS011;1254;49.144;8.212;2024-02-16T05:21:05;12.93;;;11.60;;
2486;SDS011;1254;49.144;8.212;2024-02-16T05:23:34;12.00;;;10.45;;
2486;SDS011;1254;49.144;8.212;2024-02-16T05:26:02;14.07;;;12.00;;
2486;SDS011;1254;49.144;8.212;2024-02-16T05:28:31;11.57;;;10.25;;
2486;SDS011;1254;49.144;8.212;2024-02-16T05:31:00;23.55;;;13.10;;
2486;SDS011;1254;49.144;8.212;2024-02-16T05:33:32;17.08;;;13.70;;
2486;SDS011;1254;49.144;8.212;2024-02-16T05:36:01;16.17;;;12.60;;
2486;SDS011;1254;49.144;8.212;2024-02-16T05:38:29;16.38;;;12.10;;
2486;SDS011;1254;49.144;8.212;2024-02-16T05:41:06;16.35;;;10.80;;
2486;SDS011;1254;49.144;8.212;2024-02-16T05:43:35;16.80;;;9.98;;
2486;SDS011;1254;49.144;8.212;2024-02-16T05:46:04;18.08;;;9.82;;
2486;SDS011;1254;49.144;8.212;2024-02-16T05:48:34;16.13;;;10.05;;
2486;SDS011;1254;49.144;8.212;2024-02-16T05:51:05;13.25;;;11.50;;
2486;SDS011;1254;49.144;8.212;2024-02-16T05:53:34;13.95;;;9.60;;
2486;SDS011;1254;49.144;8.212;2024-02-16T05:56:03;12.30;;;10.90;;
2486;SDS011;1254;49.144;8.212;2024-02-16T05:58:31;12.43;;;9.93;;
2486;SDS011;1254;49.144;8.212;2024-02-16T06:01:01;13.68;;;10.40;;
2486;SDS011;1254;49.144;8.212;2024-02-16T06:03:29;13.60;;;11.13;;
2486;SDS011;1254;49.144;8.212;2024-02-16T06:05:59;16.75;;;11.65;;
2486;SDS011;1254;49.144;8.212;2024-02-16T06:08:27;12.57;;;10.38;;
2486;SDS011;1254;49.144;8.212;2024-02-16T06:10:55;13.40;;;9.25;;
2486;SDS011;1254;49.144;8.212;2024-02-16T06:13:24;13.32;;;10.15;;
2486;SDS011;1254;49.144;8.212;2024-02-16T06:15:52;11.00;;;9.68;;
2486;SDS011;1254;49.144;8.212;2024-02-16T06:18:20;13.57;;;9.65;;
2486;SDS011;1254;49.144;8.212;2024-02-16T06:20:48;10.13;;;9.23;;
2486;SDS011;1254;49.144;8.212;2024-02-16T06:23:19;12.10;;;9.60;;
2486;SDS011;1254;49.144;8.212;2024-02-16T06:25:47;12.20;;;9.75;;
2486;SDS011;1254;49.144;8.212;2024-02-16T06:28:15;15.32;;;9.98;;
2486;SDS011;1254;49.144;8.212;2024-02-16T06:30:43;14.65;;;10.32;;
2486;SDS011;1254;49.144;8.212;2024-02-16T06:33:12;15.55;;;9.85;;
2486;SDS011;1254;49.144;8.212;2024-02-16T06:35:40;13.35;;;9.95;;
2486;SDS011;1254;49.144;8.212;2024-02-16T06:38:08;15.13;;;11.13;;
2486;SDS011;1254;49.144;8.212;2024-02-16T06:40:38;11.27;;;9.80;;
2486;SDS011;1254;49.144;8.212;2024-02-16T06:43:06;14.70;;;10.10;;
2486;SDS011;1254;49.144;8.212;2024-02-16T06:45:34;13.48;;;10.27;;
2486;SDS011;1254;49.144;8.212;2024-02-16T06:48:03;19.20;;;10.90;;
2486;SDS011;1254;49.144;8.212;2024-02-16T06:50:31;13.65;;;10.30;;
2486;SDS011;1254;49.144;8.212;2024-02-16T06:52:59;13.13;;;10.50;;
2486;SDS011;1254;49.144;8.212;2024-02-16T06:55:27;13.02;;;10.40;;
2486;SDS011;1254;49.144;8.212;2024-02-16T06:57:57;14.23;;;11.27;;
2486;SDS011;1254;49.144;8.212;2024-02-16T07:00:25;12.15;;;9.60;;
2486;SDS011;1254;49.144;8.212;2024-02-16T07:02:53;13.90;;;10.10;;
2486;SDS011;1254;49.144;8.212;2024-02-16T07:05:22;15.82;;;11.13;;
2486;SDS011;1254;49.144;8.212;2024-02-16T07:07:50;12.52;;;10.65;;
2486;SDS011;1254;49.144;8.212;2024-02-16T07:10:18;10.60;;;9.48;;
2486;SDS011;1254;49.144;8.212;2024-02-16T07:12:46;10.45;;;9.35;;
2486;SDS011;1254;49.144;8.212;2024-02-16T07:15:16;16.30;;;9.70;;
2486;SDS011;1254;49.144;8.212;2024-02-16T07:17:44;11.23;;;9.32;;
2486;SDS011;1254;49.144;8.212;2024-02-16T07:20:12;12.00;;;9.02;;
2486;SDS011;1254;49.144;8.212;2024-02-16T08:59:39;9.13;;;6.70;;
2486;SDS011;1254;49.144;8.212;2024-02-16T09:02:07;8.43;;;7.07;;
2486;SDS011;1254;49.144;8.212;2024-02-16T09:04:36;7.20;;;6.20;;
2486;SDS011;1254;49.144;8.212;2024-02-16T09:07:04;6.50;;;5.90;;
2486;SDS011;1254;49.144;8.212;2024-02-16T09:09:32;10.83;;;6.57;;
2486;SDS011;1254;49.144;8.212;2024-02-16T09:12:00;7.83;;;6.70;;
2486;SDS011;1254;49.144;8.212;2024-02-16T09:14:28;8.80;;;6.63;;
2486;SDS011;1254;49.144;8.212;2024-02-16T09:16:59;7.33;;;6.10;;
2486;SDS011;1254;49.144;8.212;2024-02-16T09:19:27;6.67;;;6.00;;
2486;SDS011;1254;49.144;8.212;2024-02-16T09:21:55;9.73;;;7.53;;
2486;SDS011;1254;49.144;8.212;2024-02-16T09:24:24;7.77;;;7.03;;
2486;SDS011;1254;49.144;8.212;2024-02-16T09:26:55;7.77;;;7.00;;
2486;SDS011;1254;49.144;8.212;2024-02-16T09:29:23;8.10;;;7.30;;
2486;SDS011;1254;49.144;8.212;2024-02-16T09:31:51;8.50;;;7.80;;
2486;SDS011;1254;49.144;8.212;2024-02-16T09:34:21;8.30;;;7.40;;
2486;SDS011;1254;49.144;8.212;2024-02-16T09:36:49;9.57;;;7.33;;
2486;SDS011;1254;49.144;8.212;2024-02-16T09:39:18;8.67;;;7.80;;
2486;SDS011;1254;49.144;8.212;2024-02-16T09:41:48;8.47;;;7.77;;
2486;SDS011;1254;49.144;8.212;2024-02-16T09:44:18;10.53;;;7.90;;
2486;SDS011;1254;49.144;8.212;2024-02-16T09:46:47;9.13;;;7.90;;
2486;SDS011;1254;49.144;8.212;2024-02-16T09:49:15;8.93;;;8.20;;
2486;SDS011;1254;49.144;8.212;2024-02-16T09:51:45;8.40;;;7.80;;
2486;SDS011;1254;49.144;8.212;2024-02-16T09:54:13;9.63;;;8.67;;
2486;SDS011;1254;49.144;8.212;2024-02-16T09:56:41;9.20;;;8.30;;
2486;SDS011;1254;49.144;8.212;2024-02-16T09:59:11;8.47;;;7.70;;
2486;SDS011;1254;49.144;8.212;2024-02-16T10:01:39;9.70;;;7.63;;
2486;SDS011;1254;49.144;8.212;2024-02-16T10:04:07;8.90;;;8.20;;
2486;SDS011;1254;49.144;8.212;2024-02-16T10:06:46;9.00;;;8.40;;
2486;SDS011;1254;49.144;8.212;2024-02-16T10:09:24;8.50;;;7.80;;
2486;SDS011;1254;49.144;8.212;2024-02-16T10:11:53;9.00;;;8.37;;
2486;SDS011;1254;49.144;8.212;2024-02-16T10:14:21;8.40;;;7.70;;
2486;SDS011;1254;49.144;8.212;2024-02-16T10:16:59;8.80;;;8.10;;
2486;SDS011;1254;49.144;8.212;2024-02-16T10:19:29;9.37;;;8.70;;
2486;SDS011;1254;49.144;8.212;2024-02-16T10:22:08;10.10;;;9.40;;
2486;SDS011;1254;49.144;8.212;2024-02-16T10:24:37;10.33;;;9.47;;
2486;SDS011;1254;49.144;8.212;2024-02-16T10:27:05;10.10;;;9.50;;
2486;SDS011;1254;49.144;8.212;2024-02-16T10:29:33;9.60;;;9.00;;
2486;SDS011;1254;49.144;8.212;2024-02-16T10:32:02;10.50;;;9.77;;
2486;SDS011;1254;49.144;8.212;2024-02-16T10:34:30;14.53;;;9.20;;
2486;SDS011;1254;49.144;8.212;2024-02-16T10:36:59;9.20;;;8.50;;
2486;SDS011;1254;49.144;8.212;2024-02-16T10:39:29;10.00;;;9.40;;
2486;SDS011;1254;49.144;8.212;2024-02-16T10:41:57;9.50;;;8.73;;
2486;SDS011;1254;49.144;8.212;2024-02-16T10:44:26;9.60;;;8.80;;
2486;SDS011;1254;49.144;8.212;2024-02-16T10:46:55;9.50;;;8.90;;
2486;SDS011;1254;49.144;8.212;2024-02-16T10:49:23;8.93;;;8.53;;
2486;SDS011;1254;49.144;8.212;2024-02-16T10:51:52;9.57;;;8.77;;
2486;SDS011;1254;49.144;8.212;2024-02-16T10:54:22;9.77;;;9.07;;
2486;SDS011;1254;49.144;8.212;2024-02-16T10:56:52;9.50;;;8.80;;
2486;SDS011;1254;49.144;8.212;2024-02-16T10:59:21;9.67;;;9.00;;
2486;SDS011;1254;49.144;8.212;2024-02-16T11:01:59;10.13;;;9.33;;
2486;SDS011;1254;49.144;8.212;2024-02-16T11:04:35;9.93;;;9.40;;
2486;SDS011;1254;49.144;8.212;2024-02-16T11:07:10;9.80;;;9.17;;
2486;SDS011;1254;49.144;8.212;2024-02-16T11:09:38;10.50;;;9.80;;
2486;SDS011;1254;49.144;8.212;2024-02-16T11:12:08;8.75;;;8.05;;
2486;SDS011;1254;49.144;8.212;2024-02-16T11:14:38;10.53;;;9.57;;
2486;SDS011;1254;49.144;8.212;2024-02-16T11:17:09;9.80;;;9.10;;
2486;SDS011;1254;49.144;8.212;2024-02-16T11:19:40;10.07;;;9.30;;
2486;SDS011;1254;49.144;8.212;2024-02-16T11:22:08;9.60;;;9.10;;
2486;SDS011;1254;49.144;8.212;2024-02-16T11:24:38;10.20;;;9.57;;
2486;SDS011;1254;49.144;8.212;2024-02-16T11:27:12;10.17;;;9.47;;
2486;SDS011;1254;49.144;8.212;2024-02-16T11:29:41;9.30;;;8.80;;
2486;SDS011;1254;49.144;8.212;2024-02-16T11:32:10;10.43;;;9.70;;
2486;SDS011;1254;49.144;8.212;2024-02-16T11:34:38;9.20;;;8.60;;
2486;SDS011;1254;49.144;8.212;2024-02-16T11:37:06;9.27;;;8.57;;
2486;SDS011;1254;49.144;8.212;2024-02-16T11:39:35;8.83;;;8.27;;
2486;SDS011;1254;49.144;8.212;2024-02-16T11:42:04;9.93;;;9.30;;
2486;SDS011;1254;49.144;8.212;2024-02-16T11:44:35;11.30;;;9.53;;
2486;SDS011;1254;49.144;8.212;2024-02-16T11:47:06;9.53;;;8.87;;
2486;SDS011;1254;49.144;8.212;2024-02-16T11:49:38;8.70;;;8.30;;
2486;SDS011;1254;49.144;8.212;2024-02-16T11:52:07;9.60;;;9.00;;
2486;SDS011;1254;49.144;8.212;2024-02-16T11:54:35;9.50;;;9.00;;
2486;SDS011;1254;49.144;8.212;2024-02-16T11:57:03;9.10;;;8.60;;
2486;SDS011;1254;49.144;8.212;2024-02-16T11:59:33;9.57;;;8.70;;
2486;SDS011;1254;49.144;8.212;2024-02-16T12:02:02;10.07;;;9.47;;
2486;SDS011;1254;49.144;8.212;2024-02-16T12:04:30;10.33;;;9.40;;
2486;SDS011;1254;49.144;8.212;2024-02-16T12:06:58;9.77;;;8.80;;
2486;SDS011;1254;49.144;8.212;2024-02-16T12:09:27;10.53;;;9.53;;
2486;SDS011;1254;49.144;8.212;2024-02-16T12:11:55;9.87;;;9.37;;
2486;SDS011;1254;49.144;8.212;2024-02-16T12:14:24;10.80;;;9.77;;
2486;SDS011;1254;49.144;8.212;2024-02-16T12:16:55;9.73;;;9.20;;
2486;SDS011;1254;49.144;8.212;2024-02-16T12:19:23;9.10;;;8.47;;
2486;SDS011;1254;49.144;8.212;2024-02-16T12:21:52;9.27;;;8.63;;
2486;SDS011;1254;49.144;8.212;2024-02-16T12:24:20;10.10;;;9.40;;
2486;SDS011;1254;49.144;8.212;2024-02-16T12:26:49;10.67;;;9.57;;
2486;SDS011;1254;49.144;8.212;2024-02-16T12:29:17;9.57;;;8.83;;
2486;SDS011;1254;49.144;8.212;2024-02-16T12:31:46;9.73;;;8.93;;
2486;SDS011;1254;49.144;8.212;2024-02-16T12:34:16;10.27;;;9.37;;
2486;SDS011;1254;49.144;8.212;2024-02-16T12:36:45;9.90;;;9.20;;
2486;SDS011;1254;49.144;8.212;2024-02-16T12:39:13;9.10;;;8.60;;
2486;SDS011;1254;49.144;8.212;2024-02-16T12:41:42;9.90;;;9.30;;
2486;SDS011;1254;49.144;8.212;2024-02-16T12:44:10;9.40;;;8.90;;
2486;SDS011;1254;49.144;8.212;2024-02-16T12:46:38;10.53;;;9.50;;
2486;SDS011;1254;49.144;8.212;2024-02-16T12:49:06;10.17;;;9.23;;
2486;SDS011;1254;49.144;8.212;2024-02-16T12:51:36;9.20;;;8.40;;
2486;SDS011;1254;49.144;8.212;2024-02-16T12:54:04;8.87;;;8.00;;
2486;SDS011;1254;49.144;8.212;2024-02-16T12:56:33;8.53;;;7.83;;
2486;SDS011;1254;49.144;8.212;2024-02-16T12:59:01;8.93;;;8.30;;
2486;SDS011;1254;49.144;8.212;2024-02-16T13:01:29;9.17;;;8.47;;
2486;SDS011;1254;49.144;8.212;2024-02-16T13:03:58;8.67;;;7.87;;
2486;SDS011;1254;49.144;8.212;2024-02-16T13:06:26;8.57;;;8.03;;
2486;SDS011;1254;49.144;8.212;2024-02-16T13:08:56;8.80;;;8.27;;
2486;SDS011;1254;49.144;8.212;2024-02-16T13:11:24;8.60;;;8.10;;
2486;SDS011;1254;49.144;8.212;2024-02-16T13:13:52;8.47;;;7.90;;
2486;SDS011;1254;49.144;8.212;2024-02-16T13:16:20;8.17;;;7.60;;
2486;SDS011;1254;49.144;8.212;2024-02-16T13:18:49;8.37;;;7.87;;
2486;SDS011;1254;49.144;8.212;2024-02-16T13:21:17;7.97;;;7.33;;
2486;SDS011;1254;49.144;8.212;2024-02-16T13:23:45;8.30;;;7.67;;
2486;SDS011;1254;49.144;8.212;2024-02-16T13:26:15;8.40;;;7.90;;
2486;SDS011;1254;49.144;8.212;2024-02-16T13:28:43;9.80;;;8.00;;
2486;SDS011;1254;49.144;8.212;2024-02-16T13:31:11;7.87;;;7.33;;
2486;SDS011;1254;49.144;8.212;2024-02-16T13:33:40;7.40;;;7.00;;
2486;SDS011;1254;49.144;8.212;2024-02-16T13:36:08;7.60;;;7.10;;
2486;SDS011;1254;49.144;8.212;2024-02-16T13:38:36;12.13;;;11.00;;
2486;SDS011;1254;49.144;8.212;2024-02-16T13:41:05;12.00;;;11.30;;
2486;SDS011;1254;49.144;8.212;2024-02-16T13:43:34;8.27;;;7.60;;
2486;SDS011;1254;49.144;8.212;2024-02-16T13:46:03;7.70;;;7.07;;
2486;SDS011;1254;49.144;8.212;2024-02-16T13:48:31;7.83;;;7.40;;
2486;SDS011;1254;49.144;8.212;2024-02-16T13:51:03;7.60;;;7.10;;
2486;SDS011;1254;49.144;8.212;2024-02-16T13:53:33;7.60;;;7.00;;
2486;SDS011;1254;49.144;8.212;2024-02-16T13:56:01;7.53;;;7.20;;
2486;SDS011;1254;49.144;8.212;2024-02-16T13:58:30;7.77;;;7.47;;
2486;SDS011;1254;49.144;8.212;2024-02-16T14:01:02;8.00;;;7.60;;
2486;SDS011;1254;49.144;8.212;2024-02-16T14:03:30;8.90;;;8.30;;
2486;SDS011;1254;49.144;8.212;2024-02-16T14:05:58;8.80;;;8.27;;
2486;SDS011;1254;49.144;8.212;2024-02-16T14:08:27;8.27;;;7.40;;
2486;SDS011;1254;49.144;8.212;2024-02-16T14:10:56;6.90;;;6.40;;
2486;SDS011;1254;49.144;8.212;2024-02-16T14:13:24;7.47;;;6.87;;
2486;SDS011;1254;49.144;8.212;2024-02-16T14:15:52;9.70;;;8.90;;
2486;SDS011;1254;49.144;8.212;2024-02-16T14:18:22;8.20;;;7.50;;
2486;SDS011;1254;49.144;8.212;2024-02-16T14:20:50;7.40;;;6.70;;
2486;SDS011;1254;49.144;8.212;2024-02-16T14:23:18;7.50;;;7.00;;
2486;SDS011;1254;49.144;8.212;2024-02-16T14:25:46;7.63;;;7.20;;
2486;SDS011;1254;49.144;8.212;2024-02-16T14:28:15;7.70;;;6.83;;
2486;SDS011;1254;49.144;8.212;2024-02-16T14:30:43;6.80;;;6.30;;
2486;SDS011;1254;49.144;8.212;2024-02-16T14:33:11;6.37;;;5.77;;
2486;SDS011;1254;49.144;8.212;2024-02-16T14:35:44;5.67;;;5.37;;
2486;SDS011;1254;49.144;8.212;2024-02-16T14:38:14;6.50;;;5.20;;
2486;SDS011;1254;49.144;8.212;2024-02-16T14:40:42;8.40;;;5.50;;
2486;SDS011;1254;49.144;8.212;2024-02-16T14:43:11;6.00;;;5.37;;
2486;SDS011;1254;49.144;8.212;2024-02-16T14:45:39;4.40;;;4.10;;
2486;SDS011;1254;49.144;8.212;2024-02-16T14:48:07;3.77;;;3.40;;
2486;SDS011;1254;49.144;8.212;2024-02-16T14:50:37;2.50;;;2.30;;
2486;SDS011;1254;49.144;8.212;2024-02-16T14:53:08;3.00;;;2.40;;
2486;SDS011;1254;49.144;8.212;2024-02-16T14:55:36;3.60;;;2.20;;
2486;SDS011;1254;49.144;8.212;2024-02-16T14:58:04;2.47;;;2.10;;
2486;SDS011;1254;49.144;8.212;2024-02-16T15:00:33;2.83;;;2.00;;
2486;SDS011;1254;49.144;8.212;2024-02-16T15:03:01;3.57;;;2.63;;
2486;SDS011;1254;49.144;8.212;2024-02-16T15:05:30;2.37;;;2.17;;
2486;SDS011;1254;49.144;8.212;2024-02-16T15:07:59;3.70;;;3.10;;
2486;SDS011;1254;49.144;8.212;2024-02-16T15:10:28;3.70;;;2.60;;
2486;SDS011;1254;49.144;8.212;2024-02-16T15:12:58;2.63;;;2.43;;
2486;SDS011;1254;49.144;8.212;2024-02-16T15:15:26;4.53;;;2.57;;
2486;SDS011;1254;49.144;8.212;2024-02-16T15:17:54;2.70;;;2.43;;
2486;SDS011;1254;49.144;8.212;2024-02-16T15:20:26;3.70;;;3.17;;
2486;SDS011;1254;49.144;8.212;2024-02-16T15:22:54;4.90;;;2.90;;
2486;SDS011;1254;49.144;8.212;2024-02-16T15:25:23;3.20;;;2.90;;
2486;SDS011;1254;49.144;8.212;2024-02-16T15:27:52;4.83;;;2.40;;
2486;SDS011;1254;49.144;8.212;2024-02-16T15:30:24;2.80;;;2.30;;
2486;SDS011;1254;49.144;8.212;2024-02-16T15:32:53;2.23;;;2.13;;
2486;SDS011;1254;49.144;8.212;2024-02-16T15:35:21;4.07;;;3.20;;
2486;SDS011;1254;49.144;8.212;2024-02-16T15:37:50;2.90;;;2.67;;
2486;SDS011;1254;49.144;8.212;2024-02-16T15:40:18;2.43;;;2.23;;
2486;SDS011;1254;49.144;8.212;2024-02-16T15:42:59;4.83;;;2.53;;
2486;SDS011;1254;49.144;8.212;2024-02-16T15:45:28;3.60;;;2.30;;
2486;SDS011;1254;49.144;8.212;2024-02-16T15:47:56;2.80;;;2.60;;
2486;SDS011;1254;49.144;8.212;2024-02-16T15:50:24;2.60;;;2.27;;
2486;SDS011;1254;49.144;8.212;2024-02-16T15:52:53;8.30;;;3.17;;
2486;SDS011;1254;49.144;8.212;2024-02-16T15:55:21;7.30;;;4.10;;
2486;SDS011;1254;49.144;8.212;2024-02-16T15:57:49;4.57;;;2.57;;
2486;SDS011;1254;49.144;8.212;2024-02-16T16:00:19;3.47;;;2.50;;
2486;SDS011;1254;49.144;8.212;2024-02-16T16:02:47;2.63;;;2.43;;
2486;SDS011;1254;49.144;8.212;2024-02-16T16:05:16;5.20;;;3.37;;
2486;SDS011;1254;49.144;8.212;2024-02-16T16:07:44;6.87;;;2.43;;
2486;SDS011;1254;49.144;8.212;2024-02-16T16:10:13;3.80;;;3.40;;
2486;SDS011;1254;49.144;8.212;2024-02-16T16:12:42;5.87;;;2.83;;
2486;SDS011;1254;49.144;8.212;2024-02-16T16:15:11;2.50;;;2.30;;
2486;SDS011;1254;49.144;8.212;2024-02-16T16:17:41;3.90;;;2.70;;
2486;SDS011;1254;49.144;8.212;2024-02-16T16:20:10;5.10;;;2.80;;
2486;SDS011;1254;49.144;8.212;2024-02-16T16:22:38;3.93;;;2.53;;
2486;SDS011;1254;49.144;8.212;2024-02-16T16:25:07;4.93;;;3.90;;
2486;SDS011;1254;49.144;8.212;2024-02-16T16:27:35;3.87;;;3.00;;
2486;SDS011;1254;49.144;8.212;2024-02-16T16:30:04;6.30;;;2.97;;
2486;SDS011;1254;49.144;8.212;2024-02-16T16:32:32;6.10;;;2.60;;
2486;SDS011;1254;49.144;8.212;2024-02-16T16:35:02;3.57;;;3.23;;
2486;SDS011;1254;49.144;8.212;2024-02-16T16:37:30;2.37;;;2.27;;
2486;SDS011;1254;49.144;8.212;2024-02-16T16:39:58;3.37;;;3.07;;
2486;SDS011;1254;49.144;8.212;2024-02-16T16:42:26;5.93;;;5.43;;
2486;SDS011;1254;49.144;8.212;2024-02-16T16:44:55;7.47;;;6.53;;
2486;SDS011;1254;49.144;8.212;2024-02-16T16:47:23;6.80;;;4.40;;
2486;SDS011;1254;49.144;8.212;2024-02-16T16:49:51;3.70;;;3.40;;
2486;SDS011;1254;49.144;8.212;2024-02-16T16:52:21;7.53;;;6.83;;
2486;SDS011;1254;49.144;8.212;2024-02-16T16:54:49;4.37;;;3.43;;